createdAt,value
2019-04-01T00:00:50.045Z,987.717
2019-04-01T00:02:50.303Z,987.704
2019-04-01T00:04:50.054Z,987.698
2019-04-01T00:06:50.475Z,987.696
2019-04-01T00:08:49.688Z,987.686
2019-04-01T00:10:49.977Z,987.672
2019-04-01T00:12:50.193Z,987.652
2019-04-01T00:14:50.404Z,987.644
2019-04-01T00:16:49.792Z,987.629
2019-04-01T00:19:03.783Z,987.623
2019-04-01T00:20:50.207Z,987.620
2019-04-01T00:22:50.972Z,987.623
2019-04-01T00:24:49.660Z,987.623
2019-04-01T00:26:50.119Z,987.609
2019-04-01T00:28:50.362Z,987.608
2019-04-01T00:30:50.591Z,987.597
2019-04-01T00:32:49.816Z,987.610
2019-04-01T00:34:49.611Z,987.607
2019-04-01T00:36:50.053Z,987.595
2019-04-01T00:38:50.298Z,987.595
2019-04-01T00:40:50.485Z,987.593
2019-04-01T00:42:49.709Z,987.595
2019-04-01T00:44:49.952Z,987.597
2019-04-01T00:46:50.313Z,987.629
2019-04-01T00:48:50.591Z,987.611
2019-04-01T00:50:49.771Z,987.611
2019-04-01T00:52:50.058Z,987.588
2019-04-01T00:54:50.266Z,987.583
2019-04-01T00:56:50.657Z,987.573
2019-04-01T00:58:49.887Z,987.575
2019-04-01T01:00:50.096Z,987.534
2019-04-01T01:02:50.362Z,987.514
2019-04-01T01:04:50.071Z,987.503
2019-04-01T01:06:50.509Z,987.478
2019-04-01T01:08:49.724Z,987.477
2019-04-01T01:10:49.915Z,987.472
2019-04-01T01:12:50.408Z,987.460
2019-04-01T01:14:49.795Z,987.461
2019-04-01T01:16:50.579Z,987.440
2019-04-01T01:18:49.851Z,987.413
2019-04-01T01:20:50.169Z,987.389
2019-04-01T01:22:50.339Z,987.389
2019-04-01T01:24:50.571Z,987.378
2019-04-01T01:26:50.069Z,987.359
2019-04-01T01:28:50.292Z,987.359
2019-04-01T01:30:50.557Z,987.359
2019-04-01T01:32:49.964Z,987.348
2019-04-01T01:34:49.714Z,987.354
2019-04-01T01:36:50.235Z,987.324
2019-04-01T01:38:50.523Z,987.267
2019-04-01T01:40:49.862Z,987.233
2019-04-01T01:42:50.100Z,987.218
2019-04-01T01:44:50.367Z,987.207
2019-04-01T01:46:49.694Z,987.192
2019-04-01T01:48:49.970Z,987.176
2019-04-01T01:50:50.125Z,987.176
2019-04-01T01:52:50.303Z,987.160
2019-04-01T01:54:49.618Z,987.155
2019-04-01T01:56:50.143Z,987.180
2019-04-01T01:58:50.424Z,987.174
2019-04-01T02:00:49.759Z,987.152
2019-04-01T02:02:50.064Z,987.160
2019-04-01T02:04:49.725Z,987.159
2019-04-01T02:06:50.259Z,987.160
2019-04-01T02:08:49.989Z,987.137
2019-04-01T02:10:50.285Z,987.134
2019-04-01T02:12:50.509Z,987.134
2019-04-01T02:14:49.719Z,987.128
2019-04-01T02:16:50.103Z,987.128
2019-04-01T02:18:50.280Z,987.110
2019-04-01T02:20:50.506Z,987.099
2019-04-01T02:22:49.658Z,987.099
2019-04-01T02:24:49.965Z,987.104
2019-04-01T02:26:50.325Z,987.105
2019-04-01T02:28:50.564Z,987.115
2019-04-01T02:30:49.773Z,987.115
2019-04-01T02:32:50.318Z,987.087
2019-04-01T02:34:50.002Z,987.086
2019-04-01T02:36:50.354Z,987.041
2019-04-01T02:38:50.602Z,987.046
2019-04-01T02:40:49.901Z,987.046
2019-04-01T02:42:50.315Z,987.083
2019-04-01T02:44:50.492Z,987.099
2019-04-01T02:46:49.970Z,987.072
2019-04-01T02:48:50.275Z,987.059
2019-04-01T02:50:50.476Z,987.056
2019-04-01T02:52:49.749Z,987.070
2019-04-01T02:54:50.100Z,987.080
2019-04-01T02:56:50.472Z,987.078
2019-04-01T02:58:49.696Z,987.078
2019-04-01T03:00:50.001Z,987.070
2019-04-01T03:02:50.481Z,987.061
2019-04-01T03:04:50.187Z,987.096
2019-04-01T03:06:50.507Z,987.112
2019-04-01T03:08:49.762Z,987.124
2019-04-01T03:10:50.150Z,987.151
2019-04-01T03:12:50.325Z,987.144
2019-04-01T03:14:49.649Z,987.135
2019-04-01T03:16:50.042Z,987.126
2019-04-01T03:18:50.538Z,987.125
2019-04-01T03:20:49.947Z,987.122
2019-04-01T03:22:50.145Z,987.111
2019-04-01T03:24:50.461Z,987.103
2019-04-01T03:26:49.821Z,987.111
2019-04-01T03:28:50.116Z,987.126
2019-04-01T03:30:50.475Z,987.109
2019-04-01T03:32:49.693Z,987.100
2019-04-01T03:34:50.563Z,987.121
2019-04-01T03:36:50.048Z,987.136
2019-04-01T03:38:50.319Z,987.148
2019-04-01T03:40:49.728Z,987.155
2019-04-01T03:42:50.077Z,987.148
2019-04-01T03:44:55.781Z,987.141
2019-04-01T03:46:50.350Z,987.154
2019-04-01T03:48:50.589Z,987.176
2019-04-01T03:50:49.775Z,987.177
2019-04-01T03:52:49.943Z,987.179
2019-04-01T03:54:50.289Z,987.168
2019-04-01T03:56:49.850Z,987.180
2019-04-01T03:58:50.158Z,987.130
2019-04-01T04:00:50.371Z,987.130
2019-04-01T04:02:49.730Z,987.146
2019-04-01T04:04:49.731Z,987.146
2019-04-01T04:06:50.089Z,987.145
2019-04-01T04:08:50.284Z,987.173
2019-04-01T04:10:50.400Z,987.184
2019-04-01T04:12:50.560Z,987.207
2019-04-01T04:14:52.063Z,987.229
2019-04-01T04:16:50.413Z,987.231
2019-04-01T04:18:49.672Z,987.242
2019-04-01T04:20:49.877Z,987.231
2019-04-01T04:22:50.209Z,987.221
2019-04-01T04:24:50.450Z,987.232
2019-04-01T04:26:50.526Z,987.234
2019-04-01T04:28:49.698Z,987.245
2019-04-01T04:30:50.005Z,987.258
2019-04-01T04:32:50.351Z,987.263
2019-04-01T04:34:50.136Z,987.273
2019-04-01T04:36:50.402Z,987.263
2019-04-01T04:38:50.576Z,987.251
2019-04-01T04:40:49.825Z,987.261
2019-04-01T04:42:49.955Z,987.248
2019-04-01T04:44:50.272Z,987.241
2019-04-01T04:46:49.694Z,987.243
2019-04-01T04:48:50.035Z,987.258
2019-04-01T04:50:50.324Z,987.252
2019-04-01T04:52:50.546Z,987.246
2019-04-01T04:54:49.823Z,987.264
2019-04-01T04:56:50.246Z,987.274
2019-04-01T04:58:50.447Z,987.274
2019-04-01T05:00:49.734Z,987.274
2019-04-01T05:02:50.022Z,987.308
2019-04-01T05:04:49.634Z,987.320
2019-04-01T05:06:50.041Z,987.329
2019-04-01T05:08:50.323Z,987.359
2019-04-01T05:10:50.479Z,987.368
2019-04-01T05:12:49.735Z,987.397
2019-04-01T05:14:50.011Z,987.394
2019-04-01T05:16:50.375Z,987.397
2019-04-01T05:18:49.645Z,987.417
2019-04-01T05:20:49.931Z,987.427
2019-04-01T05:22:50.098Z,987.428
2019-04-01T05:24:50.457Z,987.432
2019-04-01T05:26:49.813Z,987.427
2019-04-01T05:28:50.056Z,987.431
2019-04-01T05:30:50.309Z,987.448
2019-04-01T05:32:50.467Z,987.444
2019-04-01T05:34:50.315Z,987.441
2019-04-01T05:36:50.567Z,987.435
2019-04-01T05:38:49.811Z,987.445
2019-04-01T05:40:50.073Z,987.470
2019-04-01T05:42:50.342Z,987.467
2019-04-01T05:44:50.541Z,987.454
2019-04-01T05:46:49.908Z,987.445
2019-04-01T05:48:50.219Z,987.441
2019-04-01T05:50:50.458Z,987.446
2019-04-01T05:52:49.715Z,987.451
2019-04-01T05:54:49.891Z,987.488
2019-04-01T05:56:50.340Z,987.520
2019-04-01T05:58:50.562Z,987.528
2019-04-01T06:00:49.798Z,987.547
2019-04-01T06:02:50.249Z,987.555
2019-04-01T06:04:50.004Z,987.560
2019-04-01T06:06:50.394Z,987.554
2019-04-01T06:08:50.498Z,987.548
2019-04-01T06:10:49.843Z,987.572
2019-04-01T06:12:50.042Z,987.575
2019-04-01T06:14:50.290Z,987.568
2019-04-01T06:16:49.679Z,987.539
2019-04-01T06:18:49.931Z,987.537
2019-04-01T06:20:50.202Z,987.566
2019-04-01T06:22:50.371Z,987.562
2019-04-01T06:24:50.609Z,987.584
2019-04-01T06:26:50.076Z,987.578
2019-04-01T06:28:50.297Z,987.577
2019-04-01T06:30:50.538Z,987.564
2019-04-01T06:32:49.896Z,987.563
2019-04-01T06:34:53.394Z,987.567
2019-04-01T06:36:49.716Z,987.568
2019-04-01T06:38:49.896Z,987.561
2019-04-01T06:40:50.136Z,987.576
2019-04-01T06:42:50.341Z,987.514
2019-04-01T06:44:50.570Z,987.486
2019-04-01T06:46:49.862Z,987.469
2019-04-01T06:48:50.075Z,987.454
2019-04-01T06:50:50.309Z,987.454
2019-04-01T06:52:50.547Z,987.433
2019-04-01T06:54:49.819Z,987.413
2019-04-01T06:56:50.109Z,987.355
2019-04-01T06:58:50.312Z,987.324
2019-04-01T07:00:50.550Z,987.303
2019-04-01T07:02:49.719Z,987.312
2019-04-01T07:04:50.541Z,987.308
2019-04-01T07:06:49.910Z,987.293
2019-04-01T07:08:50.123Z,987.293
2019-04-01T07:10:50.349Z,987.294
2019-04-01T07:12:50.531Z,987.289
2019-04-01T07:14:49.927Z,987.249
2019-04-01T07:16:50.363Z,987.235
2019-04-01T07:18:50.568Z,987.228
2019-04-01T07:20:49.836Z,987.209
2019-04-01T07:22:50.084Z,987.187
2019-04-01T07:24:50.335Z,987.169
2019-04-01T07:26:49.768Z,987.160
2019-04-01T07:28:49.982Z,987.139
2019-04-01T07:30:50.255Z,987.148
2019-04-01T07:32:50.473Z,987.162
2019-04-01T07:34:50.284Z,987.194
2019-04-01T07:36:50.549Z,987.219
2019-04-01T07:38:49.719Z,987.219
2019-04-01T07:40:49.916Z,987.212
2019-04-01T07:42:50.162Z,987.228
2019-04-01T07:44:50.315Z,987.233
2019-04-01T07:46:49.760Z,987.236
2019-04-01T07:48:50.179Z,987.227
2019-04-01T07:50:50.545Z,987.246
2019-04-01T07:52:49.752Z,987.251
2019-04-01T07:54:49.970Z,987.274
2019-04-01T07:56:50.451Z,987.291
2019-04-01T07:58:49.649Z,987.291
2019-04-01T08:00:49.851Z,987.300
2019-04-01T08:02:50.138Z,987.286
2019-04-01T08:04:49.841Z,987.266
2019-04-01T08:06:50.106Z,987.263
2019-04-01T08:08:50.289Z,987.259
2019-04-01T08:10:50.544Z,987.250
2019-04-01T08:12:49.742Z,987.228
2019-04-01T08:14:49.954Z,987.228
2019-04-01T08:16:50.326Z,987.271
2019-04-01T08:18:50.548Z,987.291
2019-04-01T08:20:49.775Z,987.280
2019-04-01T08:22:50.013Z,987.254
2019-04-01T08:24:50.187Z,987.248
2019-04-01T08:26:50.575Z,987.181
2019-04-01T08:28:49.766Z,987.177
2019-04-01T08:30:49.995Z,987.142
2019-04-01T08:32:50.186Z,987.145
2019-04-01T08:34:49.896Z,987.147
2019-04-01T08:36:50.266Z,987.120
2019-04-01T08:38:50.545Z,987.123
2019-04-01T08:40:50.587Z,987.112
2019-04-01T08:42:49.691Z,987.113
2019-04-01T08:44:49.690Z,987.106
2019-04-01T08:46:49.996Z,987.091
2019-04-01T08:48:49.966Z,987.071
2019-04-01T08:50:49.952Z,987.062
2019-04-01T08:52:49.894Z,987.036
2019-04-01T08:54:52.574Z,987.037
2019-04-01T08:56:49.624Z,986.977
2019-04-01T08:58:49.704Z,986.964
2019-04-01T09:00:49.714Z,986.932
2019-04-01T09:02:49.872Z,986.931
2019-04-01T09:04:50.230Z,986.916
2019-04-01T09:06:50.448Z,986.911
2019-04-01T09:08:50.450Z,986.895
2019-04-01T09:10:50.407Z,986.867
2019-04-01T09:12:50.415Z,986.878
2019-04-01T09:14:50.521Z,986.881
2019-04-01T09:16:49.691Z,986.874
2019-04-01T09:18:49.845Z,986.850
2019-04-01T09:20:49.808Z,986.833
2019-04-01T09:22:49.938Z,986.831
2019-04-01T09:24:49.900Z,986.831
2019-04-01T09:26:50.102Z,986.820
2019-04-01T09:28:50.120Z,986.823
2019-04-01T09:30:50.165Z,986.803
2019-04-01T09:32:50.244Z,986.771
2019-04-01T09:34:49.696Z,986.743
2019-04-01T09:36:49.972Z,986.727
2019-04-01T09:38:49.976Z,986.713
2019-04-01T09:40:50.047Z,986.709
2019-04-01T09:42:50.078Z,986.672
2019-04-01T09:44:50.164Z,986.645
2019-04-01T09:46:50.600Z,986.622
2019-04-01T09:48:49.641Z,986.586
2019-04-01T09:50:49.738Z,986.558
2019-04-01T09:52:49.719Z,986.549
2019-04-01T09:54:49.789Z,986.539
2019-04-01T09:56:49.831Z,986.540
2019-04-01T09:58:49.872Z,986.525
2019-04-01T10:00:53.773Z,986.479
2019-04-01T10:02:49.747Z,986.473
2019-04-01T10:04:50.371Z,986.460
2019-04-01T10:06:50.467Z,986.414
2019-04-01T10:08:50.460Z,986.383
2019-04-01T10:10:50.499Z,986.381
2019-04-01T10:12:50.537Z,986.372
2019-04-01T10:14:50.565Z,986.336
2019-04-01T10:16:49.637Z,986.326
2019-04-01T10:18:49.622Z,986.248
2019-04-01T10:20:49.668Z,986.253
2019-04-01T10:22:49.793Z,986.245
2019-04-01T10:24:49.877Z,986.233
2019-04-01T10:26:50.077Z,986.217
2019-04-01T10:28:50.159Z,986.198
2019-04-01T10:30:50.255Z,986.157
2019-04-01T10:32:50.328Z,986.105
2019-04-01T10:34:49.685Z,986.067
2019-04-01T10:36:49.827Z,985.997
2019-04-01T10:38:49.979Z,985.984
2019-04-01T10:40:50.041Z,985.944
2019-04-01T10:42:50.092Z,985.913
2019-04-01T10:44:50.165Z,985.872
2019-04-01T10:46:50.629Z,985.838
2019-04-01T10:48:49.911Z,985.798
2019-04-01T10:50:50.263Z,985.781
2019-04-01T10:52:50.625Z,985.800
2019-04-01T10:54:49.942Z,985.817
2019-04-01T10:56:50.476Z,985.777
2019-04-01T10:58:49.827Z,985.746
2019-04-01T11:00:50.233Z,985.736
2019-04-01T11:02:50.767Z,985.725
2019-04-01T11:04:50.585Z,985.698
2019-04-01T11:06:49.855Z,985.632
2019-04-01T11:08:50.278Z,985.591
2019-04-01T11:10:50.414Z,985.567
2019-04-01T11:12:50.477Z,985.527
2019-04-01T11:14:52.098Z,985.507
2019-04-01T11:16:50.527Z,985.439
2019-04-01T11:18:49.703Z,985.414
2019-04-01T11:20:49.904Z,985.343
2019-04-01T11:22:50.132Z,985.345
2019-04-01T11:24:50.294Z,985.344
2019-04-01T11:26:49.650Z,985.342
2019-04-01T11:28:49.776Z,985.313
2019-04-01T11:30:50.311Z,985.308
2019-04-01T11:32:49.886Z,985.288
2019-04-01T11:34:49.688Z,985.268
2019-04-01T11:36:50.283Z,985.263
2019-04-01T11:38:49.916Z,985.271
2019-04-01T11:40:50.401Z,985.249
2019-04-01T11:42:49.951Z,985.236
2019-04-01T11:44:50.551Z,985.234
2019-04-01T11:46:50.101Z,985.235
2019-04-01T11:48:50.437Z,985.148
2019-04-01T11:50:49.942Z,985.125
2019-04-01T11:52:50.527Z,985.125
2019-04-01T11:54:49.979Z,984.984
2019-04-01T11:56:50.249Z,984.975
2019-04-01T11:58:50.441Z,984.950
2019-04-01T12:00:49.625Z,984.920
2019-04-01T12:02:49.957Z,984.876
2019-04-01T12:04:50.418Z,984.876
2019-04-01T12:06:49.791Z,984.804
2019-04-01T12:08:50.084Z,984.770
2019-04-01T12:10:50.342Z,984.749
2019-04-01T12:12:50.460Z,984.718
2019-04-01T12:14:49.695Z,984.696
2019-04-01T12:16:50.147Z,984.660
2019-04-01T12:18:50.431Z,984.660
2019-04-01T12:20:50.027Z,984.603
2019-04-01T12:22:50.457Z,984.570
2019-04-01T12:24:49.621Z,984.505
2019-04-01T12:26:50.106Z,984.466
2019-04-01T12:28:50.475Z,984.466
2019-04-01T12:30:49.760Z,984.443
2019-04-01T12:32:50.218Z,984.432
2019-04-01T12:34:49.873Z,984.402
2019-04-01T12:36:50.270Z,984.405
2019-04-01T12:38:54.071Z,984.381
2019-04-01T12:40:50.435Z,984.317
2019-04-01T12:42:51.263Z,984.295
2019-04-01T12:44:50.400Z,984.248
2019-04-01T12:46:49.734Z,984.221
2019-04-01T12:48:49.838Z,984.188
2019-04-01T12:50:50.187Z,984.173
2019-04-01T12:52:50.313Z,984.173
2019-04-01T12:54:50.471Z,984.125
2019-04-01T12:56:49.713Z,984.092
2019-04-01T12:58:49.899Z,984.029
2019-04-01T13:00:52.114Z,983.995
2019-04-01T13:02:50.298Z,983.995
2019-04-01T13:04:51.787Z,983.983
2019-04-01T13:06:52.045Z,983.941
2019-04-01T13:08:50.335Z,983.936
2019-04-01T13:10:50.906Z,983.937
2019-04-01T13:12:54.242Z,983.909
2019-04-01T13:14:49.663Z,983.896
2019-04-01T13:16:50.107Z,983.829
2019-04-01T13:18:50.282Z,983.783
2019-04-01T13:20:52.424Z,983.775
2019-04-01T13:22:50.567Z,983.766
2019-04-01T13:24:49.774Z,983.756
2019-04-01T13:26:51.292Z,983.708
2019-04-01T13:28:50.593Z,983.657
2019-04-01T13:30:49.794Z,983.653
2019-04-01T13:32:49.995Z,983.635
2019-04-01T13:34:50.414Z,983.631
2019-04-01T13:36:50.446Z,983.604
2019-04-01T13:38:49.699Z,983.604
2019-04-01T13:40:49.915Z,983.576
2019-04-01T13:42:50.134Z,983.573
2019-04-01T13:44:51.896Z,983.548
2019-04-01T13:46:51.169Z,983.526
2019-04-01T13:49:04.425Z,983.467
2019-04-01T13:50:50.437Z,983.460
2019-04-01T13:52:49.620Z,983.460
2019-04-01T13:54:49.794Z,983.395
2019-04-01T13:56:50.198Z,983.385
2019-04-01T13:58:50.294Z,983.384
2019-04-01T14:00:50.526Z,983.360
2019-04-01T14:02:49.715Z,983.334
2019-04-01T14:04:50.296Z,983.289
2019-04-01T14:06:49.828Z,983.272
2019-04-01T14:08:51.624Z,983.287
2019-04-01T14:10:50.191Z,983.293
2019-04-01T14:12:50.410Z,983.248
2019-04-01T14:14:50.576Z,983.217
2019-04-01T14:16:49.993Z,983.207
2019-04-01T14:18:50.231Z,983.175
2019-04-01T14:20:50.476Z,983.158
2019-04-01T14:22:49.618Z,983.146
2019-04-01T14:24:49.786Z,983.152
2019-04-01T14:26:50.078Z,983.162
2019-04-01T14:28:50.391Z,983.137
2019-04-01T14:30:50.610Z,983.110
2019-04-01T14:32:49.834Z,983.065
2019-04-01T14:34:50.862Z,983.065
2019-04-01T14:36:50.315Z,983.014
2019-04-01T14:38:50.522Z,982.998
2019-04-01T14:40:49.744Z,983.001
2019-04-01T14:42:49.975Z,982.952
2019-04-01T14:44:50.102Z,982.970
2019-04-01T14:46:50.567Z,982.973
2019-04-01T14:48:49.707Z,982.912
2019-04-01T14:50:49.852Z,982.895
2019-04-01T14:52:50.117Z,982.894
2019-04-01T14:54:50.258Z,982.882
2019-04-01T14:56:49.688Z,982.888
2019-04-01T14:58:49.784Z,982.902
2019-04-01T15:00:50.029Z,982.867
2019-04-01T15:02:50.290Z,982.867
2019-04-01T15:04:49.793Z,982.866
2019-04-01T15:06:50.060Z,982.876
2019-04-01T15:08:50.247Z,982.883
2019-04-01T15:10:50.490Z,982.852
2019-04-01T15:13:06.205Z,982.816
2019-04-01T15:14:49.766Z,982.809
2019-04-01T15:16:50.226Z,982.805
2019-04-01T15:18:50.490Z,982.790
2019-04-01T15:20:49.774Z,982.770
2019-04-01T15:22:50.181Z,982.747
2019-04-01T15:24:50.339Z,982.731
2019-04-01T15:26:49.817Z,982.728
2019-04-01T15:28:50.030Z,982.704
2019-04-01T15:30:50.209Z,982.701
2019-04-01T15:32:52.134Z,982.680
2019-04-01T15:34:50.144Z,982.662
2019-04-01T15:36:50.493Z,982.632
2019-04-01T15:38:51.494Z,982.624
2019-04-01T15:40:49.803Z,982.561
2019-04-01T15:42:50.050Z,982.522
2019-04-01T15:44:50.309Z,982.487
2019-04-01T15:46:49.734Z,982.484
2019-04-01T15:48:49.970Z,982.475
2019-04-01T15:50:50.198Z,982.438
2019-04-01T15:52:50.506Z,982.419
2019-04-01T15:54:49.683Z,982.442
2019-04-01T15:56:49.979Z,982.459
2019-04-01T15:58:51.203Z,982.470
2019-04-01T16:00:50.367Z,982.467
2019-04-01T16:02:49.663Z,982.462
2019-04-01T16:04:50.200Z,982.433
2019-04-01T16:06:50.541Z,982.421
2019-04-01T16:08:50.596Z,982.399
2019-04-01T16:10:50.766Z,982.395
2019-04-01T16:12:49.804Z,982.392
2019-04-01T16:14:50.043Z,982.385
2019-04-01T16:16:50.222Z,982.398
2019-04-01T16:18:50.326Z,982.384
2019-04-01T16:20:50.303Z,982.386
2019-04-01T16:22:50.591Z,982.394
2019-04-01T16:24:49.755Z,982.393
2019-04-01T16:26:50.005Z,982.373
2019-04-01T16:28:50.084Z,982.381
2019-04-01T16:30:50.172Z,982.405
2019-04-01T16:32:50.163Z,982.395
2019-04-01T16:34:50.630Z,982.392
2019-04-01T16:36:49.839Z,982.424
2019-04-01T16:38:49.933Z,982.424
2019-04-01T16:40:52.666Z,982.415
2019-04-01T16:42:49.838Z,982.404
2019-04-01T16:44:49.809Z,982.408
2019-04-01T16:46:50.050Z,982.411
2019-04-01T16:48:50.128Z,982.408
2019-04-01T16:50:50.207Z,982.403
2019-04-01T16:52:50.295Z,982.389
2019-04-01T16:54:50.580Z,982.410
2019-04-01T16:56:50.035Z,982.401
2019-04-01T16:58:50.110Z,982.427
2019-04-01T17:00:50.207Z,982.435
2019-04-01T17:02:51.898Z,982.454
2019-04-01T17:04:50.303Z,982.491
2019-04-01T17:06:49.614Z,982.537
2019-04-01T17:08:49.624Z,982.548
2019-04-01T17:10:49.720Z,982.577
2019-04-01T17:12:49.799Z,982.578
2019-04-01T17:14:49.819Z,982.613
2019-04-01T17:16:49.957Z,982.617
2019-04-01T17:18:49.997Z,982.620
2019-04-01T17:20:50.071Z,982.620
2019-04-01T17:22:50.160Z,982.606
2019-04-01T17:24:50.249Z,982.603
2019-04-01T17:26:51.519Z,982.597
2019-04-01T17:28:50.598Z,982.611
2019-04-01T17:30:49.645Z,982.606
2019-04-01T17:32:49.786Z,982.612
2019-04-01T17:34:50.299Z,982.598
2019-04-01T17:36:50.453Z,982.590
2019-04-01T17:38:50.425Z,982.582
2019-04-01T17:40:50.444Z,982.568
2019-04-01T17:42:50.579Z,982.575
2019-04-01T17:44:49.646Z,982.575
2019-04-01T17:46:49.790Z,982.576
2019-04-01T17:48:49.863Z,982.610
2019-04-01T17:50:49.848Z,982.610
2019-04-01T17:52:49.934Z,982.638
2019-04-01T17:54:50.066Z,982.656
2019-04-01T17:56:50.264Z,982.663
2019-04-01T17:58:50.330Z,982.658
2019-04-01T18:00:50.363Z,982.658
2019-04-01T18:02:50.357Z,982.655
2019-04-01T18:04:49.756Z,982.656
2019-04-01T18:06:49.953Z,982.649
2019-04-01T18:08:49.977Z,982.658
2019-04-01T18:10:50.128Z,982.668
2019-04-01T18:12:51.950Z,982.653
2019-04-01T18:14:50.336Z,982.631
2019-04-01T18:16:50.576Z,982.626
2019-04-01T18:18:49.612Z,982.628
2019-04-01T18:20:49.687Z,982.644
2019-04-01T18:22:49.744Z,982.658
2019-04-01T18:24:49.750Z,982.678
2019-04-01T18:26:49.917Z,982.688
2019-04-01T18:28:50.005Z,982.683
2019-04-01T18:30:50.043Z,982.682
2019-04-01T18:32:55.616Z,982.682
2019-04-01T18:34:50.250Z,982.680
2019-04-01T18:36:52.663Z,982.712
2019-04-01T18:38:49.686Z,982.737
2019-04-01T18:40:49.766Z,982.744
2019-04-01T18:42:49.772Z,982.754
2019-04-01T18:44:49.801Z,982.761
2019-04-01T18:46:50.058Z,982.772
2019-04-01T18:48:50.129Z,982.791
2019-04-01T18:50:50.178Z,982.798
2019-04-01T18:52:50.227Z,982.798
2019-04-01T18:54:50.222Z,982.804
2019-04-01T18:56:50.413Z,982.829
2019-04-01T18:58:50.415Z,982.846
2019-04-01T19:00:50.474Z,982.865
2019-04-01T19:02:50.495Z,982.861
2019-04-01T19:04:49.888Z,982.869
2019-04-01T19:06:50.155Z,982.870
2019-04-01T19:08:50.179Z,982.874
2019-04-01T19:11:02.870Z,982.872
2019-04-01T19:12:50.242Z,982.870
2019-04-01T19:14:50.284Z,982.877
2019-04-01T19:16:50.516Z,982.888
2019-04-01T19:18:49.604Z,982.888
2019-04-01T19:21:04.819Z,982.897
2019-04-01T19:22:49.740Z,982.916
2019-04-01T19:24:49.730Z,982.911
2019-04-01T19:26:50.093Z,982.915
2019-04-01T19:28:50.085Z,982.916
2019-04-01T19:30:50.112Z,982.914
2019-04-01T19:32:50.226Z,982.909
2019-04-01T19:34:49.681Z,982.898
2019-04-01T19:36:49.807Z,982.902
2019-04-01T19:38:49.866Z,982.934
2019-04-01T19:40:49.899Z,982.945
2019-04-01T19:42:49.925Z,982.947
2019-04-01T19:44:49.938Z,982.963
2019-04-01T19:46:50.097Z,982.969
2019-04-01T19:48:50.084Z,982.967
2019-04-01T19:50:50.102Z,982.984
2019-04-01T19:52:50.149Z,982.984
2019-04-01T19:54:50.277Z,982.982
2019-04-01T19:56:49.616Z,982.979
2019-04-01T19:58:49.662Z,982.982
2019-04-01T20:00:49.705Z,982.976
2019-04-01T20:02:49.859Z,982.985
2019-04-01T20:04:50.155Z,983.004
2019-04-01T20:06:50.217Z,983.015
2019-04-01T20:08:50.219Z,983.034
2019-04-01T20:10:50.221Z,983.038
2019-04-01T20:12:51.206Z,983.055
2019-04-01T20:14:50.189Z,983.053
2019-04-01T20:16:50.329Z,983.040
2019-04-01T20:18:50.334Z,983.030
2019-04-01T20:20:50.448Z,983.020
2019-04-01T20:22:50.500Z,983.025
2019-04-01T20:24:50.572Z,983.009
2019-04-01T20:26:49.723Z,983.004
2019-04-01T20:28:49.780Z,982.993
2019-04-01T20:30:49.721Z,982.961
2019-04-01T20:32:49.851Z,982.930
2019-04-01T20:34:59.626Z,982.934
2019-04-01T20:36:50.075Z,982.937
2019-04-01T20:38:50.232Z,982.937
2019-04-01T20:40:50.291Z,982.926
2019-04-01T20:42:50.549Z,982.918
2019-04-01T20:44:49.624Z,982.906
2019-04-01T20:46:49.747Z,982.896
2019-04-01T20:48:49.845Z,982.909
2019-04-01T20:50:49.991Z,982.909
2019-04-01T20:52:50.858Z,982.911
2019-04-01T20:54:49.987Z,982.916
2019-04-01T20:56:50.206Z,982.912
2019-04-01T20:58:50.226Z,982.939
2019-04-01T21:00:50.372Z,982.918
2019-04-01T21:02:50.352Z,982.906
2019-04-01T21:04:49.914Z,982.877
2019-04-01T21:06:50.565Z,982.877
2019-04-01T21:08:50.604Z,982.858
2019-04-01T21:10:49.700Z,982.839
2019-04-01T21:12:49.766Z,982.833
2019-04-01T21:14:49.850Z,982.808
2019-04-01T21:16:50.043Z,982.809
2019-04-01T21:18:50.166Z,982.794
2019-04-01T21:20:50.294Z,982.781
2019-04-01T21:22:50.330Z,982.744
2019-04-01T21:24:50.361Z,982.717
2019-04-01T21:26:50.615Z,982.703
2019-04-01T21:28:50.579Z,982.687
2019-04-01T21:30:49.633Z,982.680
2019-04-01T21:32:49.622Z,982.670
2019-04-01T21:34:50.114Z,982.662
2019-04-01T21:36:50.334Z,982.653
2019-04-01T21:38:50.355Z,982.647
2019-04-01T21:40:50.373Z,982.647
2019-04-01T21:42:52.067Z,982.623
2019-04-01T21:44:50.128Z,982.617
2019-04-01T21:46:50.266Z,982.619
2019-04-01T21:48:50.248Z,982.631
2019-04-01T21:50:50.362Z,982.630
2019-04-01T21:52:50.439Z,982.611
2019-04-01T21:54:50.463Z,982.597
2019-04-01T21:56:49.713Z,982.585
2019-04-01T21:58:49.785Z,982.553
2019-04-01T22:00:49.872Z,982.534
2019-04-01T22:02:49.957Z,982.512
2019-04-01T22:04:50.441Z,982.505
2019-04-01T22:06:50.558Z,982.481
2019-04-01T22:08:50.544Z,982.475
2019-04-01T22:10:50.587Z,982.474
2019-04-01T22:12:52.879Z,982.475
2019-04-01T22:14:49.962Z,982.458
2019-04-01T22:16:50.178Z,982.445
2019-04-01T22:18:50.239Z,982.429
2019-04-01T22:20:50.273Z,982.416
2019-04-01T22:22:50.383Z,982.409
2019-04-01T22:24:50.390Z,982.426
2019-04-01T22:26:50.490Z,982.426
2019-04-01T22:28:51.696Z,982.419
2019-04-01T22:30:49.805Z,982.388
2019-04-01T22:32:49.785Z,982.374
2019-04-01T22:34:50.157Z,982.366
2019-04-01T22:36:50.349Z,982.319
2019-04-01T22:38:50.442Z,982.325
2019-04-01T22:40:50.598Z,982.315
2019-04-01T22:42:49.705Z,982.305
2019-04-01T22:44:49.790Z,982.289
2019-04-01T22:46:49.921Z,982.277
2019-04-01T22:48:49.958Z,982.276
2019-04-01T22:50:50.009Z,982.276
2019-04-01T22:52:50.113Z,982.260
2019-04-01T22:54:50.218Z,982.239
2019-04-01T22:56:50.432Z,982.240
2019-04-01T22:58:51.758Z,982.207
2019-04-01T23:00:49.753Z,982.194
2019-04-01T23:02:49.929Z,982.166
2019-04-01T23:04:50.341Z,982.152
2019-04-01T23:06:50.570Z,982.152
2019-04-01T23:08:49.655Z,982.130
2019-04-01T23:10:50.604Z,982.110
2019-04-01T23:12:51.659Z,982.075
2019-04-01T23:14:49.687Z,982.075
2019-04-01T23:16:50.086Z,982.043
2019-04-01T23:18:50.121Z,982.029
2019-04-01T23:20:50.194Z,982.025
2019-04-01T23:22:50.242Z,982.010
2019-04-01T23:24:50.309Z,982.000
2019-04-01T23:26:50.393Z,981.975
2019-04-01T23:28:50.483Z,981.952
2019-04-01T23:30:50.523Z,981.949
2019-04-01T23:32:49.694Z,981.919
2019-04-01T23:34:50.159Z,981.908
2019-04-01T23:36:50.271Z,981.894
2019-04-01T23:38:50.358Z,981.900
2019-04-01T23:40:50.399Z,981.893
2019-04-01T23:42:50.447Z,981.883
2019-04-01T23:44:52.810Z,981.865
2019-04-01T23:46:50.049Z,981.867
2019-04-01T23:48:50.081Z,981.847
2019-04-01T23:50:50.107Z,981.868
2019-04-01T23:52:50.173Z,981.861
2019-04-01T23:54:50.191Z,981.868
2019-04-01T23:56:50.461Z,981.857
2019-04-01T23:58:51.728Z,981.851
